ENSB/LYR METAR and TAF weather

Enter ICAO airport designator
Station Type Date Time Source
ENSB METAR 2022/06/29 00:50 UTC NOAA

ENSB 290050Z 25010KT 9999 BKN035 08/05 Q1020 RMK WIND 1400FT 27006KT


Station Type Date Time Source
ENSB Decoded METAR 2022/06/29 00:50 UTC NOAA

Svalbard Lufthavn, Norway (ENSB) 78-15N 015-28E 29M
Jun 28, 2022 - 08:50 PM EDT / 2022.06.29 0050 UTC
Wind: from the WSW (250 degrees) at 12 MPH (10 KT):0
Visibility: greater than 7 mile(s):0
Sky conditions: mostly cloudy
Temperature: 46 F (8 C)
Dew Point: 41 F (5 C)
Relative Humidity: 81%
Pressure (altimeter): 30.12 in. Hg (1020 hPa)
ob: ENSB 290050Z 25010KT 9999 BKN035 08/05 Q1020 RMK WIND 1400FT 27006KT
cycle: 1

Station Type Date Time Source
ENSB TAF 2022/06/28 18:57 UTC NOAA

TAF ENSB 281700Z 2818/2918 25005KT 9999 FEW050 BKN070
TEMPO 2900/2914 2500 DZRA BR BKN004

Example: see airport list